createdAt,value
2022-08-12T00:00:21.953Z,96.70
2022-08-12T00:05:24.705Z,97.20
2022-08-12T00:10:26.681Z,97.50
2022-08-12T00:15:29.230Z,97.50
2022-08-12T00:20:30.996Z,98.00
2022-08-12T00:26:05.755Z,98.30
2022-08-12T00:31:03.758Z,98.20
2022-08-12T00:36:05.844Z,98.50
2022-08-12T00:41:16.519Z,99.00
2022-08-12T00:46:18.214Z,99.90
2022-08-12T00:51:20.757Z,99.90
2022-08-12T00:56:24.025Z,99.90
2022-08-12T01:01:26.711Z,99.90
2022-08-12T01:06:30.296Z,99.90
2022-08-12T01:11:32.332Z,99.90
2022-08-12T01:16:34.245Z,99.90
2022-08-12T01:22:00.994Z,99.90
2022-08-12T01:27:07.500Z,99.90
2022-08-12T01:32:13.122Z,99.90
2022-08-12T01:37:19.032Z,99.90
2022-08-12T01:42:22.539Z,99.90
2022-08-12T01:47:48.265Z,99.90
2022-08-12T01:53:02.946Z,99.90
2022-08-12T01:58:26.802Z,99.90
2022-08-12T02:03:41.178Z,99.90
2022-08-12T02:08:47.658Z,99.90
2022-08-12T02:14:27.835Z,99.90
2022-08-12T02:20:01.195Z,99.90
2022-08-12T02:25:29.341Z,99.90
2022-08-12T02:30:41.636Z,99.90
2022-08-12T02:35:44.840Z,99.90
2022-08-12T02:40:51.763Z,99.90
2022-08-12T02:46:00.555Z,99.90
2022-08-12T02:51:06.563Z,99.90
2022-08-12T02:56:08.329Z,99.90
2022-08-12T03:01:10.174Z,99.90
2022-08-12T03:06:22.498Z,99.90
2022-08-12T03:11:50.241Z,99.90
2022-08-12T03:17:07.073Z,99.90
2022-08-12T03:22:11.247Z,99.90
2022-08-12T03:27:14.375Z,99.90
2022-08-12T03:32:36.178Z,99.90
2022-08-12T03:37:40.094Z,99.90
2022-08-12T03:42:46.642Z,99.90
2022-08-12T03:47:59.347Z,99.90
2022-08-12T03:53:02.777Z,99.90
2022-08-12T03:58:04.995Z,99.90
2022-08-12T04:03:08.794Z,99.90
2022-08-12T04:08:14.321Z,99.90
2022-08-12T04:13:22.235Z,99.90
2022-08-12T04:18:24.757Z,99.90
2022-08-12T04:23:26.819Z,99.90
2022-08-12T04:28:28.773Z,99.90
2022-08-12T04:33:30.944Z,99.90
2022-08-12T04:38:34.351Z,99.90
2022-08-12T04:43:59.672Z,99.90
2022-08-12T04:48:57.928Z,99.90
2022-08-12T04:54:04.663Z,99.90
2022-08-12T04:59:06.380Z,99.90
2022-08-12T05:04:09.150Z,99.90
2022-08-12T05:09:13.333Z,99.90
2022-08-12T05:14:15.357Z,99.90
2022-08-12T05:19:18.578Z,99.90
2022-08-12T05:24:24.405Z,99.90
2022-08-12T05:30:05.743Z,99.90
2022-08-12T05:34:48.800Z,99.90
2022-08-12T05:39:50.969Z,99.90
2022-08-12T05:44:52.731Z,99.90
2022-08-12T05:49:54.585Z,99.90
2022-08-12T05:54:57.868Z,99.90
2022-08-12T05:59:59.791Z,99.90
2022-08-12T06:05:01.935Z,99.90
2022-08-12T06:10:03.937Z,99.90
2022-08-12T06:15:06.139Z,99.90
2022-08-12T06:20:26.279Z,99.90
2022-08-12T06:25:30.147Z,99.90
2022-08-12T06:30:37.939Z,99.90
2022-08-12T06:35:48.427Z,99.90
2022-08-12T06:40:59.335Z,99.90
2022-08-12T06:46:01.320Z,99.90
2022-08-12T06:51:03.932Z,99.90
2022-08-12T06:56:09.276Z,99.90
2022-08-12T07:01:14.022Z,99.90
2022-08-12T07:06:15.924Z,99.90
2022-08-12T07:11:17.669Z,99.90
2022-08-12T07:16:20.703Z,99.90
2022-08-12T07:21:22.442Z,99.90
2022-08-12T07:26:24.224Z,99.90
2022-08-12T07:31:28.535Z,99.90
2022-08-12T07:36:30.748Z,99.90
2022-08-12T07:41:32.477Z,99.90
2022-08-12T07:46:40.307Z,99.90
2022-08-12T07:51:43.925Z,99.90
2022-08-12T07:56:45.671Z,99.90
2022-08-12T08:01:47.477Z,99.90
2022-08-12T08:06:50.081Z,99.90
2022-08-12T08:11:53.421Z,99.90
2022-08-12T08:16:59.971Z,99.90
2022-08-12T08:22:01.751Z,99.90
2022-08-12T08:27:03.602Z,99.90
2022-08-12T08:32:05.405Z,99.90
2022-08-12T08:37:10.532Z,99.90
2022-08-12T08:42:18.693Z,99.90
2022-08-12T08:47:22.026Z,99.90
2022-08-12T08:52:38.904Z,99.90
2022-08-12T08:57:44.742Z,99.90
2022-08-12T09:02:49.098Z,99.90
2022-08-12T09:08:12.089Z,99.90
2022-08-12T09:13:23.325Z,99.90
2022-08-12T09:18:33.583Z,99.90
2022-08-12T09:24:01.274Z,99.90
2022-08-12T09:28:58.459Z,99.90
2022-08-12T09:34:28.503Z,99.90
2022-08-12T09:40:01.716Z,99.90
2022-08-12T09:44:46.041Z,99.90
2022-08-12T09:50:08.292Z,99.90
2022-08-12T09:56:05.459Z,99.90
2022-08-12T10:00:52.030Z,99.90
2022-08-12T10:06:26.776Z,99.90
2022-08-12T10:11:20.033Z,99.90
2022-08-12T10:16:27.258Z,99.90
2022-08-12T10:21:37.614Z,99.90
2022-08-12T10:26:41.530Z,99.90
2022-08-12T10:31:47.372Z,99.90
2022-08-12T10:37:22.719Z,99.90
2022-08-12T10:42:29.461Z,99.90
2022-08-12T10:48:20.585Z,99.90
2022-08-12T10:52:58.279Z,99.90
2022-08-12T10:58:14.690Z,99.90
2022-08-12T11:04:31.477Z,99.90
2022-08-12T11:08:46.507Z,99.90
2022-08-12T11:13:49.357Z,99.90
2022-08-12T11:18:55.567Z,99.90
2022-08-12T11:23:58.593Z,99.90
2022-08-12T11:29:06.050Z,99.90
2022-08-12T11:34:53.780Z,99.90
2022-08-12T11:45:10.354Z,99.90
2022-08-12T11:50:19.034Z,99.90
2022-08-12T11:55:23.258Z,99.90
2022-08-12T12:05:46.940Z,99.90
2022-08-12T12:10:50.730Z,99.90
2022-08-12T12:15:53.119Z,99.90
2022-08-12T12:20:58.134Z,99.90
2022-08-12T12:26:08.148Z,99.90
2022-08-12T12:31:14.994Z,99.90
2022-08-12T12:36:33.286Z,98.20
2022-08-12T12:42:45.556Z,97.70
2022-08-12T12:46:57.323Z,98.10
2022-08-12T12:52:18.972Z,97.90
2022-08-12T12:57:21.593Z,98.40
2022-08-12T13:02:54.202Z,97.60
2022-08-12T13:08:00.782Z,98.40
2022-08-12T13:14:07.332Z,97.30
2022-08-12T13:18:28.514Z,97.30
2022-08-12T13:23:36.272Z,97.80
2022-08-12T13:28:42.897Z,96.00
2022-08-12T13:34:28.479Z,95.60
2022-08-12T13:39:07.197Z,97.60
2022-08-12T13:44:10.648Z,96.40
2022-08-12T13:49:17.415Z,97.00
2022-08-12T13:54:26.439Z,97.10
2022-08-12T13:59:28.718Z,96.30
2022-08-12T14:04:56.293Z,96.80
2022-08-12T14:09:58.843Z,97.30
2022-08-12T14:15:00.773Z,96.90
2022-08-12T14:20:02.601Z,96.90
2022-08-12T14:25:04.568Z,97.00
2022-08-12T14:30:17.201Z,94.40
2022-08-12T14:35:29.085Z,95.90
2022-08-12T14:40:43.447Z,94.40
2022-08-12T14:45:49.328Z,95.40
2022-08-12T14:51:03.183Z,96.50
2022-08-12T15:01:36.110Z,92.70
2022-08-12T15:06:52.353Z,94.50
2022-08-12T15:12:03.296Z,94.60
2022-08-12T15:17:05.984Z,95.40
2022-08-12T15:22:37.233Z,93.70
2022-08-12T15:27:31.846Z,93.40
2022-08-12T15:32:53.016Z,93.50
2022-08-12T15:38:10.256Z,93.50
2022-08-12T15:43:14.024Z,92.90
2022-08-12T15:48:35.834Z,93.10
2022-08-12T15:53:37.704Z,94.10
2022-08-12T15:58:40.804Z,94.70
2022-08-12T16:03:46.351Z,94.80
2022-08-12T16:09:02.530Z,93.70
2022-08-12T16:14:04.323Z,94.50
2022-08-12T16:19:09.451Z,94.80
2022-08-12T16:24:20.916Z,95.10
2022-08-12T16:29:23.763Z,95.00
2022-08-12T16:34:54.434Z,94.40
2022-08-12T16:40:00.704Z,94.40
2022-08-12T16:45:03.053Z,94.90
2022-08-12T16:50:07.120Z,94.80
2022-08-12T16:55:12.967Z,95.00
2022-08-12T17:00:16.719Z,94.10
2022-08-12T17:05:18.484Z,94.60
2022-08-12T17:10:36.027Z,93.90
2022-08-12T17:15:57.656Z,96.90
2022-08-12T17:21:01.739Z,99.90
2022-08-12T17:26:04.516Z,99.90
2022-08-12T17:31:07.069Z,99.90
2022-08-12T17:36:10.600Z,99.90
2022-08-12T17:41:22.975Z,99.90
2022-08-12T17:46:34.323Z,99.90
2022-08-12T17:51:50.254Z,99.90
2022-08-12T17:56:52.910Z,99.90
2022-08-12T18:02:00.715Z,99.90
2022-08-12T18:07:03.201Z,99.90
2022-08-12T18:12:09.176Z,99.90
2022-08-12T18:17:12.375Z,99.90
2022-08-12T18:22:14.269Z,99.90
2022-08-12T18:27:30.317Z,99.90
2022-08-12T18:32:58.618Z,99.90
2022-08-12T18:38:00.828Z,99.90
2022-08-12T18:43:05.310Z,99.90
2022-08-12T18:48:07.708Z,99.90
2022-08-12T18:53:10.745Z,99.90
2022-08-12T18:58:38.355Z,99.90
2022-08-12T19:04:02.451Z,99.90
2022-08-12T19:09:05.720Z,99.90
2022-08-12T19:14:11.929Z,99.90
2022-08-12T19:19:18.385Z,99.90
2022-08-12T19:24:21.371Z,99.90
2022-08-12T19:29:24.992Z,99.90
2022-08-12T19:35:53.805Z,99.90
2022-08-12T19:40:07.983Z,99.90
2022-08-12T19:45:15.857Z,99.90
2022-08-12T19:50:20.046Z,99.90
2022-08-12T19:55:24.809Z,99.90
2022-08-12T20:00:28.359Z,99.90
2022-08-12T20:06:05.390Z,99.90
2022-08-12T20:12:15.110Z,99.90
2022-08-12T20:16:51.132Z,99.90
2022-08-12T20:21:43.655Z,99.90
2022-08-12T20:26:46.864Z,99.90
2022-08-12T20:31:51.875Z,99.90
2022-08-12T20:36:57.200Z,99.90
2022-08-12T20:42:10.060Z,99.90
2022-08-12T20:47:18.658Z,99.90
2022-08-12T20:52:22.163Z,99.90
2022-08-12T20:57:24.634Z,99.90
2022-08-12T21:02:39.557Z,99.90
2022-08-12T21:07:51.477Z,99.90
2022-08-12T21:12:54.154Z,99.90
2022-08-12T21:18:15.736Z,99.90
2022-08-12T21:23:25.646Z,99.90
2022-08-12T21:28:32.931Z,99.90
2022-08-12T21:33:58.575Z,99.90
2022-08-12T21:39:18.934Z,99.90
2022-08-12T21:45:44.682Z,99.90
2022-08-12T21:49:55.408Z,99.90
2022-08-12T21:55:07.961Z,99.90
2022-08-12T22:00:18.925Z,99.90
2022-08-12T22:05:20.685Z,99.90
2022-08-12T22:10:28.253Z,99.90
2022-08-12T22:15:31.038Z,99.90
2022-08-12T22:20:32.963Z,99.90
2022-08-12T22:25:34.671Z,99.90
2022-08-12T22:30:41.820Z,99.90
2022-08-12T22:35:58.892Z,99.90
2022-08-12T22:41:07.347Z,99.90
2022-08-12T22:46:12.081Z,99.90
2022-08-12T22:51:13.966Z,99.90
2022-08-12T22:56:16.930Z,99.90
2022-08-12T23:01:21.461Z,99.90
2022-08-12T23:06:40.387Z,99.90
2022-08-12T23:11:42.606Z,99.90
2022-08-12T23:16:46.167Z,99.90
2022-08-12T23:22:06.077Z,99.90
2022-08-12T23:27:14.668Z,99.90
2022-08-12T23:32:35.329Z,99.90
2022-08-12T23:37:47.036Z,99.90
2022-08-12T23:42:55.321Z,99.90
2022-08-12T23:47:57.463Z,99.90
2022-08-12T23:52:59.317Z,99.90
2022-08-12T23:58:22.878Z,99.90
